Terminal Aerodrome Forecast
Issued by NWS

Home | Current Version | Previous Version | Graphics & Text | Print | Product List | Glossary On
Versions: 1 2 3 4 5 6 7 8 9 10 11 12
496
FTUS41 KCLE 161720
TAFFDY
TAF
KFDY 161720Z 1618/1718 28006KT P6SM SCT035
      TEMPO 1618/1620 BKN035
     FM170000 VRB03KT P6SM SKC
     FM171400 23012G20KT P6SM SKC=

USA.gov is the U.S. government's official web portal to all federal, state and local government web resources and services.